Hovedside
METAR-TAF:

METAR-TAF

Lufthavner :

Chehalis, Washington, USA

breddegrad: 46-40-37N, lengdegrad: 122-58-58W, høyde over havet: 54 m

Gjeldene værobservasjon

Denne rapporten ble laget for 14 minutter siden, klokken 20:55 UTC
Vind 9 kt fra Sør
Temperatur 9°C
Luftfuktighet 93%
Trykk 1012 hPa
Sikt: 6.4 km
Få skyer i en høyde av 3000 ft
Spredte skyer i en høyde av 3600 ft
Brutte skyer i en høyde av 4700 ft
lett regn

METAR: KCLS 122055Z AUTO 17009KT 4SM -RA FEW030 SCT036 BKN047 09/08 A2989 RMK AO2 P0001

Tid: 13:09 (21:09 UTC)


TAF: fraværende

Værobservasjoner og værvarsel for over 4000 flyplasser (METAR- og TAF-rapporter).

Tilgjengelige stasjoner er representert av de røde og gule prikkene på kartet.

Hold musepekeren over prikken for å se navnet på stasjonen.

Klikk så for å se værobservasjoner og -varsler.

For å forandre kartet kan du klikke på den grønne knappen med svart kryss for å zoome inn, på den grønne knappen med strek for å zoome ut, eller på de grønne pilene for å se tilstøtende kart.


METAR-TAF: